Yatesville, GA

6:02 AM EST on December 22, 2014 (GMT -0500)
Thomaston-Upson County | Change Station
CLOSE
Current Station
Airport
Location: Thomaston,
Elevation: 797 ft
Nearby Weather Stations

Elev 797 ft 32.95 °N, 84.26 °W | Updated 7 minutes ago

Fog
Fog
48 °F
Feels Like 48 °F
N
6
Wind Variable Wind from East

Today
High -- | Low -- °F
--% Chance of Precip.
Yesterday
High -- | Low -- °F
Precip. -- in
7:35 AM 5:34 PM
New Moon, 0% visible
Pressure 30.03 in
Visibility 1.5 miles
Clouds Overcast 200 ft
Dew Point 46 °F
Humidity 93%
Rainfall 0.00 in
Snow Depth Not available.
UV 0 out of 12
Pollen 1.40 out of 12
Air Quality Not available.
Flu Activity Not available.
METAR KOPN 221055Z AUTO 09005KT 1 1/2SM BR OVC002 09/08 A3003 RMK AO2

More Conditions Fewer Conditions

Pressure 30.03 in
Visibility 1.5 miles
Clouds Overcast 200 ft
Dew Point 46 °F
Humidity 93%
Rainfall 0.00 in
Snow Depth Not available.
UV 0 out of 12
Pollen 1.40 out of 12
Air Quality Not available.
Flu Activity Not available.
METAR KOPN 221055Z AUTO 09005KT 1 1/2SM BR OVC002 09/08 A3003 RMK AO2

More Conditions Fewer Conditions

10-Day Weather Forecast

Almanac

Astronomy

Dec. 22, 2014 Rise Set
Actual Time
Civil Twilight
Nautical Twilight
Astronomical Twilight
Moon
Length of Visible Light
Length of Day
Tomorrow will be .
, % of the Moon is Illuminated

Today's Extremes

State Highs State Lows

Community

WunderPhotos

Upload Photos

1,779,583 photos uploaded!

WunderBlogs® & News

Nearby

Air Quality

  Air Quality AQ Index Pollutant
Not available.

Snow Depth

Station Depth Elevation

Earthquake Activity

City Distance Mag. Time & Date
Minimum magnitude displayed is 2.5.

Coastal Water Temperatures

Place Temperature

Nearby Weather Stations